Terminal Aerodrome Forecast
Issued by NWS Tulsa, OK

Home | Current Version | Previous Version | Text Only | Print | Product List | Glossary On
Versions: 1 2 3 4 5 6 7 8 9 10 11 12 13 14 15 16 17 18 19 20 21 22 23
000
FTUS44 KTSA 281123
TAFFSM
TAF
KFSM 281123Z 2812/2912 00000KT P6SM SCT250
      TEMPO 2812/2814 BKN015
     FM281400 20008KT P6SM BKN015
     FM282000 20008KT P6SM SCT025
     FM290100 VRB03KT P6SM SCT250
     FM290600 00000KT P6SM BKN030=

USA.gov is the U.S. government's official web portal to all federal, state and local government web resources and services.